Time;durP1;ratioP1;P1;durP2;ratioP2;P2;SDS_P1;SDS_P2;PMS_P1;PMS_P2;Temp;Humidity;BMP_temperature;BMP_pressure;BME280_temperature;BME280_humidity;BME280_pressure;Samples;Min_cycle;Max_cycle;Signal;HPM_P1;HPM_P2
2021/01/20 00:00:40;;;;;;;;;;;5.50;96.50;;;;;;4318448;33;20005;-85
2021/01/20 00:03:12;;;;;;;;;;;5.50;96.20;;;;;;4306177;33;20470;-85
2021/01/20 00:05:38;;;;;;;;;;;5.50;96.30;;;;;;4319189;33;20441;-84
2021/01/20 00:08:08;;;;;;;;;;;5.50;96.10;;;;;;4319744;33;20391;-85
2021/01/20 00:10:39;;;;;;;;;;;5.50;96.10;;;;;;4306568;33;20429;-84
2021/01/20 00:13:06;;;;;;;;;;;5.40;96.20;;;;;;4306524;33;20072;-86
2021/01/20 00:15:33;;;;;;;;;;;5.40;96.20;;;;;;4318982;33;20010;-84
2021/01/20 00:18:00;;;;;;;;;;;5.50;96.00;;;;;;4317908;33;20360;-84
2021/01/20 00:20:29;;;;;;;;;;;5.40;96.10;;;;;;4305607;33;20005;-84
2021/01/20 00:22:59;;;;;;;;;;;5.40;96.10;;;;;;4306520;33;20136;-84
2021/01/20 00:25:25;;;;;;;;;;;5.40;96.10;;;;;;4305612;33;20192;-84
2021/01/20 00:27:57;;;;;;;;;;;5.40;96.00;;;;;;4318307;33;20010;-84
2021/01/20 00:30:24;;;;;;;;;;;5.40;96.00;;;;;;4305861;33;20005;-84
2021/01/20 00:32:51;;;;;;;;;;;5.40;96.10;;;;;;4293897;33;19998;-83
2021/01/20 00:35:21;;;;;;;;;;;5.40;96.00;;;;;;4318392;33;20053;-84
2021/01/20 00:37:48;;;;;;;;;;;5.40;95.80;;;;;;4305187;33;21247;-86
2021/01/20 00:40:18;;;;;;;;;;;5.40;95.80;;;;;;4305661;33;20036;-83
2021/01/20 00:42:44;;;;;;;;;;;5.40;95.80;;;;;;4293683;33;20009;-84
2021/01/20 00:45:14;;;;;;;;;;;5.40;95.70;;;;;;4305339;33;20017;-84
2021/01/20 00:47:43;;;;;;;;;;;5.40;95.70;;;;;;4305530;33;20005;-84
2021/01/20 00:50:10;;;;;;;;;;;5.50;95.70;;;;;;4305625;33;20387;-84
2021/01/20 00:52:37;;;;;;;;;;;5.50;95.60;;;;;;4319286;33;20011;-84
2021/01/20 00:55:04;;;;;;;;;;;5.50;95.40;;;;;;4318895;33;20010;-83
2021/01/20 00:57:30;;;;;;;;;;;5.50;95.50;;;;;;4305864;33;20012;-84
2021/01/20 01:00:02;;;;;;;;;;;5.50;95.60;;;;;;4318472;33;20010;-84
2021/01/20 01:02:29;;;;;;;;;;;5.50;95.40;;;;;;4318438;33;20470;-84
2021/01/20 01:04:58;;;;;;;;;;;5.50;95.40;;;;;;4318261;33;20005;-83
2021/01/20 01:07:24;;;;;;;;;;;5.50;95.30;;;;;;4305450;33;20009;-83
2021/01/20 01:09:53;;;;;;;;;;;5.60;95.30;;;;;;4318891;33;20017;-86
2021/01/20 01:12:25;;;;;;;;;;;5.50;95.10;;;;;;4318639;33;21047;-85
2021/01/20 01:14:52;;;;;;;;;;;5.60;95.10;;;;;;4318974;33;20407;-84
2021/01/20 01:17:22;;;;;;;;;;;5.60;95.00;;;;;;4318460;33;20028;-84
2021/01/20 01:19:51;;;;;;;;;;;5.60;95.00;;;;;;4305327;33;20032;-84
2021/01/20 01:22:18;;;;;;;;;;;5.60;94.90;;;;;;4305427;33;20014;-83
2021/01/20 01:24:46;;;;;;;;;;;5.60;95.00;;;;;;4317927;33;20013;-83
2021/01/20 01:27:13;;;;;;;;;;;5.60;94.90;;;;;;4318105;33;20017;-83
2021/01/20 01:29:43;;;;;;;;;;;5.60;94.80;;;;;;4317526;33;27393;-84
2021/01/20 01:32:12;;;;;;;;;;;5.60;95.00;;;;;;4305390;33;20015;-85
2021/01/20 01:34:44;;;;;;;;;;;5.60;94.80;;;;;;4304320;33;27891;-85
2021/01/20 01:37:13;;;;;;;;;;;5.60;94.90;;;;;;4306160;33;20052;-84
2021/01/20 01:39:45;;;;;;;;;;;5.60;94.70;;;;;;4305604;33;20014;-85
2021/01/20 01:42:16;;;;;;;;;;;5.60;94.70;;;;;;4305439;33;20018;-84
2021/01/20 01:44:45;;;;;;;;;;;5.70;94.90;;;;;;4317037;33;20006;-83
2021/01/20 01:47:17;;;;;;;;;;;5.60;94.80;;;;;;4305193;33;20020;-85
2021/01/20 01:49:45;;;;;;;;;;;5.70;94.90;;;;;;4318239;33;20044;-84
2021/01/20 01:52:12;;;;;;;;;;;5.70;94.80;;;;;;4304112;33;28767;-85
2021/01/20 01:54:39;;;;;;;;;;;5.80;94.80;;;;;;4317478;33;20431;-84
2021/01/20 01:57:09;;;;;;;;;;;5.90;94.90;;;;;;4305102;33;20065;-82
2021/01/20 01:59:36;;;;;;;;;;;5.90;94.80;;;;;;4317938;33;20010;-84
2021/01/20 02:02:02;;;;;;;;;;;5.90;94.70;;;;;;4304434;33;20018;-83
2021/01/20 02:04:29;;;;;;;;;;;6.00;94.60;;;;;;4304758;33;20002;-84
2021/01/20 02:06:59;;;;;;;;;;;6.00;94.60;;;;;;4318386;33;20197;-84
2021/01/20 02:09:28;;;;;;;;;;;6.00;94.50;;;;;;4317225;33;21927;-83
2021/01/20 02:12:24;;;;;;;;;;;6.00;94.40;;;;;;4304786;33;20041;-83
2021/01/20 02:15:03;;;;;;;;;;;6.10;94.50;;;;;;4295494;33;20002;-84
2021/01/20 02:17:29;;;;;;;;;;;6.10;94.40;;;;;;4304472;33;19998;-84
2021/01/20 02:19:56;;;;;;;;;;;6.10;94.40;;;;;;4317758;33;20085;-83
2021/01/20 02:22:27;;;;;;;;;;;6.10;94.50;;;;;;4292525;33;20005;-84
2021/01/20 02:25:12;;;;;;;;;;;6.10;94.40;;;;;;4316708;33;42732;-84
2021/01/20 02:27:51;;;;;;;;;;;6.10;94.40;;;;;;4317803;33;20056;-83
2021/01/20 02:30:22;;;;;;;;;;;6.20;94.40;;;;;;4304449;33;20025;-83
2021/01/20 02:32:53;;;;;;;;;;;6.20;94.30;;;;;;4315963;33;32345;-83
2021/01/20 02:35:26;;;;;;;;;;;6.20;94.20;;;;;;4302782;33;46742;-82
2021/01/20 02:37:53;;;;;;;;;;;6.20;94.30;;;;;;4291153;33;37719;-84
2021/01/20 02:40:20;;;;;;;;;;;6.20;94.10;;;;;;4316298;33;41801;-82
2021/01/20 02:42:47;;;;;;;;;;;6.20;94.10;;;;;;4316386;33;31413;-84
2021/01/20 02:45:19;;;;;;;;;;;6.20;94.00;;;;;;4316450;33;40070;-83
2021/01/20 02:47:47;;;;;;;;;;;6.20;94.10;;;;;;4303285;33;44800;-83
2021/01/20 02:50:14;;;;;;;;;;;6.20;94.00;;;;;;4316639;33;37147;-82
2021/01/20 02:52:53;;;;;;;;;;;6.20;93.80;;;;;;4316658;33;41260;-83
2021/01/20 02:55:25;;;;;;;;;;;6.20;93.80;;;;;;4302694;33;44502;-83
2021/01/20 02:58:01;;;;;;;;;;;6.20;93.70;;;;;;4303330;33;25293;-83
2021/01/20 03:00:29;;;;;;;;;;;6.20;93.80;;;;;;4302728;33;43275;-83
2021/01/20 03:02:57;;;;;;;;;;;6.20;93.80;;;;;;4315842;33;44751;-84
2021/01/20 03:05:26;;;;;;;;;;;6.30;93.50;;;;;;4302392;33;35371;-83
2021/01/20 03:07:56;;;;;;;;;;;6.30;93.80;;;;;;4303222;33;37539;-84
2021/01/20 03:10:24;;;;;;;;;;;6.30;93.70;;;;;;4316303;33;44021;-83
2021/01/20 03:12:53;;;;;;;;;;;6.30;93.70;;;;;;4317458;33;20054;-82
2021/01/20 03:15:29;;;;;;;;;;;6.30;93.50;;;;;;4315023;33;44592;-82
2021/01/20 03:17:58;;;;;;;;;;;6.30;93.10;;;;;;4303027;33;44101;-84
2021/01/20 03:20:27;;;;;;;;;;;6.30;93.00;;;;;;4302735;33;43253;-82
2021/01/20 03:22:54;;;;;;;;;;;6.30;93.30;;;;;;4316272;33;34322;-83
2021/01/20 03:25:21;;;;;;;;;;;6.30;93.20;;;;;;4315769;33;39679;-83
2021/01/20 03:27:48;;;;;;;;;;;6.30;93.10;;;;;;4303170;33;31811;-82
2021/01/20 03:30:18;;;;;;;;;;;6.30;93.10;;;;;;4315770;33;44602;-83
2021/01/20 03:32:47;;;;;;;;;;;6.30;92.90;;;;;;4314670;33;40001;-83
2021/01/20 03:35:16;;;;;;;;;;;6.30;92.80;;;;;;4302882;33;33962;-83
2021/01/20 03:37:43;;;;;;;;;;;6.30;92.80;;;;;;4303209;33;34717;-82
2021/01/20 03:40:10;;;;;;;;;;;6.40;92.90;;;;;;4315947;33;29030;-83
2021/01/20 03:42:41;;;;;;;;;;;6.40;92.60;;;;;;4315997;33;31304;-83
2021/01/20 03:45:13;;;;;;;;;;;6.30;92.70;;;;;;4302700;33;42476;-83
2021/01/20 03:47:42;;;;;;;;;;;6.40;92.70;;;;;;4315279;33;40593;-83
2021/01/20 03:50:09;;;;;;;;;;;6.30;92.30;;;;;;4315913;33;44119;-83
2021/01/20 03:52:36;;;;;;;;;;;6.40;92.40;;;;;;4316549;33;21913;-84
2021/01/20 03:55:03;;;;;;;;;;;6.30;92.20;;;;;;4316077;33;34693;-83
2021/01/20 03:57:40;;;;;;;;;;;6.40;92.50;;;;;;4304121;33;19998;-82
2021/01/20 04:00:07;;;;;;;;;;;6.30;92.20;;;;;;4315776;33;44063;-82
2021/01/20 04:02:36;;;;;;;;;;;6.40;92.30;;;;;;4299982;33;38203;-82
2021/01/20 04:05:09;;;;;;;;;;;6.30;92.30;;;;;;4300241;33;38177;-84
2021/01/20 04:07:38;;;;;;;;;;;6.30;92.30;;;;;;4287816;33;43970;-82
2021/01/20 04:10:07;;;;;;;;;;;6.30;92.20;;;;;;4300973;33;39012;-82
2021/01/20 04:12:39;;;;;;;;;;;6.30;92.20;;;;;;4302346;33;20420;-82
2021/01/20 04:15:09;;;;;;;;;;;6.30;92.30;;;;;;4301357;33;20033;-83
2021/01/20 04:17:38;;;;;;;;;;;6.40;92.70;;;;;;4304333;33;20384;-82
2021/01/20 04:20:06;;;;;;;;;;;6.40;92.30;;;;;;4303793;33;20349;-82
2021/01/20 04:22:33;;;;;;;;;;;6.40;92.30;;;;;;4302911;33;32226;-82
2021/01/20 04:25:05;;;;;;;;;;;6.40;92.20;;;;;;4314592;33;39052;-82
2021/01/20 04:27:32;;;;;;;;;;;6.50;92.30;;;;;;4314885;33;44682;-81
2021/01/20 04:30:01;;;;;;;;;;;6.50;92.20;;;;;;4302931;33;42032;-83
2021/01/20 04:32:33;;;;;;;;;;;6.50;92.10;;;;;;4303260;33;44698;-82
2021/01/20 04:35:06;;;;;;;;;;;6.50;92.20;;;;;;4304402;33;28567;-82
2021/01/20 04:37:35;;;;;;;;;;;6.50;92.20;;;;;;4303752;33;20018;-82
2021/01/20 04:40:12;;;;;;;;;;;6.60;92.20;;;;;;4303487;33;20370;-82
2021/01/20 04:42:39;;;;;;;;;;;6.60;92.20;;;;;;4303498;33;20014;-82
2021/01/20 04:45:09;;;;;;;;;;;6.60;92.20;;;;;;4304501;33;20010;-82
2021/01/20 04:47:36;;;;;;;;;;;6.60;92.00;;;;;;4315885;33;20355;-83
2021/01/20 04:50:09;;;;;;;;;;;6.70;92.20;;;;;;4315055;33;20047;-81
2021/01/20 04:52:44;;;;;;;;;;;6.70;92.10;;;;;;4302958;33;24175;-82
2021/01/20 04:55:19;;;;;;;;;;;6.70;92.00;;;;;;4291593;33;20002;-82
2021/01/20 04:57:49;;;;;;;;;;;6.70;92.00;;;;;;4303411;33;20021;-86
2021/01/20 05:00:18;;;;;;;;;;;6.70;91.90;;;;;;4304729;33;20416;-82
2021/01/20 05:02:45;;;;;;;;;;;6.70;91.80;;;;;;4313695;33;20038;-84
2021/01/20 05:05:12;;;;;;;;;;;6.60;91.90;;;;;;4305335;33;20028;-82
2021/01/20 05:07:45;;;;;;;;;;;6.70;91.80;;;;;;4318746;33;20018;-82
2021/01/20 05:10:11;;;;;;;;;;;6.60;91.70;;;;;;4319092;33;20013;-82
2021/01/20 05:12:42;;;;;;;;;;;6.60;91.80;;;;;;4317171;33;20025;-82
2021/01/20 05:15:15;;;;;;;;;;;6.60;91.90;;;;;;4293428;33;20010;-82
2021/01/20 05:17:55;;;;;;;;;;;6.60;91.80;;;;;;4305305;33;28483;-81
2021/01/20 05:20:29;;;;;;;;;;;6.50;91.70;;;;;;4305205;33;20151;-82
2021/01/20 05:23:00;;;;;;;;;;;6.50;91.80;;;;;;4318149;33;26828;-82
2021/01/20 05:25:27;;;;;;;;;;;6.50;91.90;;;;;;4304054;33;44057;-82
2021/01/20 05:27:57;;;;;;;;;;;6.50;91.90;;;;;;4304357;33;28702;-82
2021/01/20 05:30:24;;;;;;;;;;;6.40;92.00;;;;;;4318109;33;29851;-82
2021/01/20 05:32:59;;;;;;;;;;;6.50;91.90;;;;;;4317655;33;37267;-81
2021/01/20 05:35:26;;;;;;;;;;;6.50;92.10;;;;;;4303983;33;43419;-82
2021/01/20 05:37:54;;;;;;;;;;;6.50;91.90;;;;;;4317555;33;27925;-81
2021/01/20 05:40:21;;;;;;;;;;;6.50;92.00;;;;;;4317925;33;33535;-82
2021/01/20 05:42:50;;;;;;;;;;;6.50;91.80;;;;;;4303711;33;44232;-82
2021/01/20 05:45:20;;;;;;;;;;;6.50;91.80;;;;;;4317218;33;45095;-82
2021/01/20 05:48:06;;;;;;;;;;;6.50;91.80;;;;;;4318018;33;20184;-82
2021/01/20 05:50:36;;;;;;;;;;;6.60;91.80;;;;;;4316189;33;27547;-82
2021/01/20 05:53:03;;;;;;;;;;;6.60;92.30;;;;;;4317224;33;41165;-83
2021/01/20 05:55:29;;;;;;;;;;;6.60;91.80;;;;;;4318214;33;20010;-82
2021/01/20 05:57:59;;;;;;;;;;;6.60;91.90;;;;;;4318300;33;20441;-82
2021/01/20 06:00:28;;;;;;;;;;;6.60;91.70;;;;;;4317741;33;20057;-82
2021/01/20 06:02:56;;;;;;;;;;;6.60;91.90;;;;;;4317754;33;20027;-81
2021/01/20 06:05:24;;;;;;;;;;;6.70;91.90;;;;;;4303760;33;38678;-83
2021/01/20 06:07:54;;;;;;;;;;;6.70;91.90;;;;;;4303772;33;36943;-82
2021/01/20 06:10:23;;;;;;;;;;;6.70;92.00;;;;;;4317726;33;20038;-82
2021/01/20 06:12:53;;;;;;;;;;;6.70;92.00;;;;;;4305386;33;20060;-82
2021/01/20 06:15:22;;;;;;;;;;;6.70;91.90;;;;;;4303298;33;45590;-83
2021/01/20 06:17:50;;;;;;;;;;;6.80;91.90;;;;;;4316564;33;43508;-82
2021/01/20 06:20:20;;;;;;;;;;;6.80;91.90;;;;;;4316660;33;43289;-81
2021/01/20 06:22:48;;;;;;;;;;;6.80;91.90;;;;;;4317526;33;20045;-81
2021/01/20 06:25:30;;;;;;;;;;;6.90;92.00;;;;;;4317506;33;20006;-82
2021/01/20 06:28:00;;;;;;;;;;;6.90;91.80;;;;;;4316676;33;20010;-82
2021/01/20 06:30:47;;;;;;;;;;;6.90;91.80;;;;;;4292094;33;20002;-81
2021/01/20 06:33:15;;;;;;;;;;;6.90;91.70;;;;;;4304479;33;20020;-81
2021/01/20 06:35:45;;;;;;;;;;;6.90;91.80;;;;;;4304094;33;20002;-83
2021/01/20 06:38:30;;;;;;;;;;;6.90;91.60;;;;;;4316934;33;33700;-82
2021/01/20 06:40:59;;;;;;;;;;;7.00;91.80;;;;;;4303979;33;20027;-82
2021/01/20 06:43:33;;;;;;;;;;;7.00;91.80;;;;;;4317621;33;20009;-82
2021/01/20 06:46:10;;;;;;;;;;;7.00;91.80;;;;;;4316587;33;36949;-82
2021/01/20 06:48:55;;;;;;;;;;;7.00;91.80;;;;;;4304332;33;20435;-82
2021/01/20 06:51:25;;;;;;;;;;;6.90;91.80;;;;;;4302775;33;43124;-82
2021/01/20 06:54:10;;;;;;;;;;;6.90;91.80;;;;;;4316131;33;20022;-82
2021/01/20 06:56:45;;;;;;;;;;;6.90;91.80;;;;;;4316278;33;40434;-82
2021/01/20 06:59:12;;;;;;;;;;;6.90;91.80;;;;;;4316640;33;34175;-82
2021/01/20 07:01:38;;;;;;;;;;;6.90;91.80;;;;;;4304021;33;20400;-82
2021/01/20 07:04:05;;;;;;;;;;;6.90;91.60;;;;;;4317038;33;20020;-83
2021/01/20 07:06:38;;;;;;;;;;;6.90;91.50;;;;;;4304461;33;20073;-82
2021/01/20 07:09:11;;;;;;;;;;;6.90;91.60;;;;;;4292172;33;20391;-83
2021/01/20 07:12:07;;;;;;;;;;;6.90;91.40;;;;;;4304661;33;20027;-82
2021/01/20 07:14:35;;;;;;;;;;;7.00;91.40;;;;;;4315332;33;20020;-82
2021/01/20 07:17:07;;;;;;;;;;;7.00;91.60;;;;;;4303938;33;20012;-82
2021/01/20 07:19:37;;;;;;;;;;;7.00;91.50;;;;;;4316677;33;20006;-83
2021/01/20 07:22:10;;;;;;;;;;;7.00;91.50;;;;;;4316953;33;20411;-83
2021/01/20 07:24:39;;;;;;;;;;;7.00;91.40;;;;;;4304244;33;19998;-82
2021/01/20 07:27:10;;;;;;;;;;;7.00;91.40;;;;;;4291849;33;20002;-82
2021/01/20 07:29:37;;;;;;;;;;;7.00;91.60;;;;;;4302774;33;40421;-82
2021/01/20 07:32:07;;;;;;;;;;;7.00;91.60;;;;;;4316910;33;20028;-82
2021/01/20 07:34:34;;;;;;;;;;;7.00;91.70;;;;;;4316270;33;33133;-82
2021/01/20 07:37:11;;;;;;;;;;;7.00;91.50;;;;;;4317403;33;20010;-82
2021/01/20 07:39:38;;;;;;;;;;;7.00;91.60;;;;;;4302902;33;23282;-82
2021/01/20 07:42:08;;;;;;;;;;;7.00;91.70;;;;;;4315729;33;43108;-82
2021/01/20 07:44:45;;;;;;;;;;;7.00;91.70;;;;;;4290771;33;44562;-82
2021/01/20 07:47:11;;;;;;;;;;;7.00;91.60;;;;;;4302591;33;42908;-82
2021/01/20 07:49:50;;;;;;;;;;;7.00;91.60;;;;;;4302504;33;44436;-82
2021/01/20 07:52:19;;;;;;;;;;;7.00;91.40;;;;;;4304683;33;38568;-81
2021/01/20 07:54:48;;;;;;;;;;;7.00;90.80;;;;;;4305531;33;42692;-82
2021/01/20 07:57:16;;;;;;;;;;;7.00;90.90;;;;;;4305420;33;36445;-81
2021/01/20 07:59:42;;;;;;;;;;;7.00;90.80;;;;;;4318343;33;44072;-82
2021/01/20 08:02:09;;;;;;;;;;;7.00;90.40;;;;;;4318320;33;43664;-82
2021/01/20 08:04:40;;;;;;;;;;;7.00;90.60;;;;;;4305893;33;22655;-82
2021/01/20 08:07:10;;;;;;;;;;;7.00;90.40;;;;;;4306451;33;19998;-82
2021/01/20 08:09:40;;;;;;;;;;;6.90;90.50;;;;;;4306331;33;20026;-82
2021/01/20 08:12:08;;;;;;;;;;;6.90;90.50;;;;;;4319836;33;20002;-81
2021/01/20 08:14:40;;;;;;;;;;;6.90;90.50;;;;;;4305655;33;23100;-81
2021/01/20 08:17:16;;;;;;;;;;;6.90;90.50;;;;;;4294700;33;20053;-82
2021/01/20 08:19:44;;;;;;;;;;;6.90;90.50;;;;;;4306638;33;20395;-81
2021/01/20 08:22:17;;;;;;;;;;;6.90;90.40;;;;;;4319441;33;20022;-83
2021/01/20 08:24:53;;;;;;;;;;;6.90;90.00;;;;;;4305857;33;45144;-82
2021/01/20 08:27:38;;;;;;;;;;;6.90;90.10;;;;;;4318599;33;35527;-82
2021/01/20 08:30:06;;;;;;;;;;;6.80;89.70;;;;;;4318399;33;44697;-82
2021/01/20 08:32:33;;;;;;;;;;;6.90;89.80;;;;;;4293044;33;45695;-82
2021/01/20 08:35:00;;;;;;;;;;;6.90;89.50;;;;;;4318206;33;44165;-81
2021/01/20 08:37:37;;;;;;;;;;;6.90;89.80;;;;;;4304760;33;43164;-81
2021/01/20 08:40:12;;;;;;;;;;;6.90;89.70;;;;;;4294680;33;45805;-82
2021/01/20 08:42:40;;;;;;;;;;;6.90;89.00;;;;;;4315908;33;37178;-82
2021/01/20 08:45:11;;;;;;;;;;;6.90;88.90;;;;;;4318161;33;39799;-82
2021/01/20 08:48:17;;;;;;;;;;;6.90;89.10;;;;;;4304943;33;20528;-81
2021/01/20 08:50:45;;;;;;;;;;;6.90;88.80;;;;;;4270191;33;40827;-82
2021/01/20 08:53:13;;;;;;;;;;;7.00;88.90;;;;;;4270513;33;43898;-81
2021/01/20 08:55:41;;;;;;;;;;;7.00;88.20;;;;;;4290206;33;20010;-81
2021/01/20 08:58:17;;;;;;;;;;;7.00;88.30;;;;;;4318737;33;20364;-81
2021/01/20 09:00:44;;;;;;;;;;;7.00;88.60;;;;;;4292994;33;25578;-81
2021/01/20 09:03:18;;;;;;;;;;;7.00;88.60;;;;;;4317791;33;20380;-81
2021/01/20 09:05:45;;;;;;;;;;;7.00;87.80;;;;;;4318728;33;20005;-81
2021/01/20 09:08:13;;;;;;;;;;;7.00;87.80;;;;;;4305518;33;20009;-82
2021/01/20 09:10:40;;;;;;;;;;;7.00;87.90;;;;;;4305069;33;20024;-81
2021/01/20 09:13:09;;;;;;;;;;;7.10;87.80;;;;;;4305424;33;20339;-81
2021/01/20 09:15:36;;;;;;;;;;;7.10;87.10;;;;;;4305242;33;20010;-81
2021/01/20 09:18:06;;;;;;;;;;;7.10;87.00;;;;;;4318871;33;20424;-81
2021/01/20 09:20:34;;;;;;;;;;;7.10;87.20;;;;;;4317759;33;44665;-82
2021/01/20 09:23:01;;;;;;;;;;;7.10;85.80;;;;;;4317681;33;25271;-82
2021/01/20 09:25:28;;;;;;;;;;;7.20;86.10;;;;;;4304898;33;20453;-81
2021/01/20 09:27:54;;;;;;;;;;;7.20;86.10;;;;;;4318660;33;20009;-81
2021/01/20 09:30:21;;;;;;;;;;;7.20;86.10;;;;;;4303995;33;44000;-81
2021/01/20 09:32:48;;;;;;;;;;;7.20;86.00;;;;;;4305200;33;20020;-81
2021/01/20 09:35:15;;;;;;;;;;;7.20;86.10;;;;;;4303935;33;35952;-81
2021/01/20 09:37:43;;;;;;;;;;;7.20;85.70;;;;;;4318387;33;20009;-81
2021/01/20 09:40:15;;;;;;;;;;;7.30;85.40;;;;;;4318596;33;20010;-81
2021/01/20 09:42:48;;;;;;;;;;;7.30;84.70;;;;;;4304482;33;20242;-82
2021/01/20 09:45:16;;;;;;;;;;;7.30;84.60;;;;;;4317539;33;44037;-82
2021/01/20 09:47:46;;;;;;;;;;;7.30;85.00;;;;;;4305162;33;20422;-82
2021/01/20 09:50:16;;;;;;;;;;;7.30;84.70;;;;;;4318219;33;20010;-81
2021/01/20 09:52:47;;;;;;;;;;;7.30;84.40;;;;;;4317502;33;20022;-81
2021/01/20 09:55:14;;;;;;;;;;;7.40;84.30;;;;;;4318626;33;20015;-81
2021/01/20 09:57:41;;;;;;;;;;;7.40;84.40;;;;;;4304481;33;21945;-81
2021/01/20 10:00:08;;;;;;;;;;;7.40;84.30;;;;;;4304895;33;20072;-81
2021/01/20 10:02:37;;;;;;;;;;;7.40;84.90;;;;;;4304488;33;20006;-82
2021/01/20 10:05:08;;;;;;;;;;;7.40;84.50;;;;;;4317349;33;20383;-82
2021/01/20 10:07:35;;;;;;;;;;;7.40;83.60;;;;;;4303439;33;45598;-81
2021/01/20 10:10:04;;;;;;;;;;;7.50;84.30;;;;;;4316968;33;41235;-81
2021/01/20 10:12:33;;;;;;;;;;;7.50;83.50;;;;;;4316566;33;41131;-81
2021/01/20 10:15:02;;;;;;;;;;;7.50;84.00;;;;;;4291249;33;44227;-82
2021/01/20 10:17:28;;;;;;;;;;;7.50;83.70;;;;;;4316891;33;41869;-81
2021/01/20 10:19:58;;;;;;;;;;;7.50;83.40;;;;;;4317163;33;33424;-81
2021/01/20 10:22:25;;;;;;;;;;;7.60;83.20;;;;;;4316313;33;45051;-81
2021/01/20 10:24:58;;;;;;;;;;;7.60;83.90;;;;;;4316592;33;45039;-82
2021/01/20 10:27:25;;;;;;;;;;;7.60;83.30;;;;;;4316836;33;40394;-81
2021/01/20 10:29:54;;;;;;;;;;;7.60;82.60;;;;;;4316815;33;38762;-81
2021/01/20 10:32:20;;;;;;;;;;;7.60;83.50;;;;;;4291069;33;43504;-81
2021/01/20 10:34:47;;;;;;;;;;;7.60;83.20;;;;;;4316653;33;44689;-81
2021/01/20 10:37:13;;;;;;;;;;;7.70;83.10;;;;;;4316074;33;44642;-81
2021/01/20 10:39:40;;;;;;;;;;;7.70;82.60;;;;;;4303234;33;43542;-81
2021/01/20 10:42:07;;;;;;;;;;;7.70;83.40;;;;;;4303409;33;43669;-81
2021/01/20 10:44:33;;;;;;;;;;;7.80;83.60;;;;;;4316439;33;44714;-81
2021/01/20 10:47:00;;;;;;;;;;;7.80;83.00;;;;;;4316143;33;37580;-81
2021/01/20 10:49:28;;;;;;;;;;;7.80;82.40;;;;;;4316454;33;43497;-81
2021/01/20 10:51:55;;;;;;;;;;;7.80;82.90;;;;;;4317249;33;20040;-81
2021/01/20 10:54:21;;;;;;;;;;;7.90;82.90;;;;;;4316189;33;43628;-81
2021/01/20 10:56:48;;;;;;;;;;;7.80;82.40;;;;;;4316015;33;39183;-81
2021/01/20 10:59:14;;;;;;;;;;;7.90;82.10;;;;;;4316281;33;44941;-81
2021/01/20 11:01:41;;;;;;;;;;;7.90;82.70;;;;;;4303294;33;42695;-81
2021/01/20 11:04:08;;;;;;;;;;;8.00;82.30;;;;;;4316123;33;39206;-81
2021/01/20 11:06:34;;;;;;;;;;;8.00;82.60;;;;;;4291933;33;20006;-81
2021/01/20 11:09:02;;;;;;;;;;;8.00;82.00;;;;;;4315785;33;43113;-81
2021/01/20 11:11:28;;;;;;;;;;;8.00;81.90;;;;;;4302651;33;44738;-81
2021/01/20 11:13:55;;;;;;;;;;;8.00;81.40;;;;;;4302676;33;43890;-81
2021/01/20 11:16:22;;;;;;;;;;;8.00;82.20;;;;;;4302681;33;43701;-81
2021/01/20 11:18:50;;;;;;;;;;;8.10;80.70;;;;;;4316577;33;35397;-81
2021/01/20 11:21:16;;;;;;;;;;;8.30;81.60;;;;;;4302927;33;40877;-81
2021/01/20 11:23:43;;;;;;;;;;;8.40;81.20;;;;;;4303899;33;20040;-81
2021/01/20 11:26:10;;;;;;;;;;;8.50;80.40;;;;;;4315641;33;40069;-81
2021/01/20 11:28:37;;;;;;;;;;;8.60;80.30;;;;;;4315575;33;44194;-81
2021/01/20 11:31:04;;;;;;;;;;;8.60;80.80;;;;;;4316162;33;43625;-81
2021/01/20 11:33:40;;;;;;;;;;;8.70;80.50;;;;;;4316123;33;43084;-81
2021/01/20 11:36:06;;;;;;;;;;;8.70;80.40;;;;;;4315899;33;44664;-81
2021/01/20 11:38:33;;;;;;;;;;;8.70;80.30;;;;;;4302684;33;44515;-81
2021/01/20 11:41:00;;;;;;;;;;;8.70;80.50;;;;;;4303060;33;39127;-81
2021/01/20 11:43:27;;;;;;;;;;;8.70;80.00;;;;;;4302790;33;31675;-81
2021/01/20 11:45:53;;;;;;;;;;;8.70;80.10;;;;;;4315883;33;37936;-81
2021/01/20 11:48:20;;;;;;;;;;;8.70;80.20;;;;;;4290358;33;46913;-81
2021/01/20 11:50:47;;;;;;;;;;;8.80;80.20;;;;;;4303902;33;20473;-81
2021/01/20 11:53:20;;;;;;;;;;;8.90;80.60;;;;;;4303863;33;24791;-81
2021/01/20 11:55:46;;;;;;;;;;;9.00;79.90;;;;;;4315737;33;39670;-81
2021/01/20 11:58:13;;;;;;;;;;;9.20;79.80;;;;;;4302427;33;43810;-81
2021/01/20 12:00:39;;;;;;;;;;;9.30;79.60;;;;;;4302122;33;46810;-80
2021/01/20 12:03:06;;;;;;;;;;;9.40;79.10;;;;;;4302252;33;45417;-81
2021/01/20 12:05:32;;;;;;;;;;;9.50;78.60;;;;;;4302830;33;44690;-81
2021/01/20 12:07:59;;;;;;;;;;;9.50;78.40;;;;;;4302098;33;46177;-81
2021/01/20 12:10:25;;;;;;;;;;;9.50;78.00;;;;;;4290195;33;41962;-81
2021/01/20 12:12:52;;;;;;;;;;;9.50;78.20;;;;;;4315696;33;43422;-80
2021/01/20 12:15:18;;;;;;;;;;;9.50;78.40;;;;;;4315260;33;45431;-81
2021/01/20 12:17:45;;;;;;;;;;;9.50;77.70;;;;;;4315352;33;41067;-81
2021/01/20 12:20:12;;;;;;;;;;;9.40;77.20;;;;;;4315703;33;44309;-78
2021/01/20 12:22:39;;;;;;;;;;;9.40;76.40;;;;;;4315792;33;43383;-81
2021/01/20 12:25:06;;;;;;;;;;;9.40;77.50;;;;;;4302180;33;37526;-81
2021/01/20 12:27:38;;;;;;;;;;;9.40;77.60;;;;;;4315726;33;44611;-81
2021/01/20 12:30:07;;;;;;;;;;;9.30;77.10;;;;;;4302778;33;40335;-83
2021/01/20 12:32:36;;;;;;;;;;;9.30;77.50;;;;;;4315890;33;30994;-82
2021/01/20 12:35:07;;;;;;;;;;;9.20;77.70;;;;;;4302841;33;20363;-81
2021/01/20 12:37:44;;;;;;;;;;;9.20;77.10;;;;;;4304706;33;20386;-82
2021/01/20 12:40:10;;;;;;;;;;;9.20;77.80;;;;;;4305190;33;43629;-82
2021/01/20 12:42:39;;;;;;;;;;;9.20;77.60;;;;;;4293996;33;20096;-82
2021/01/20 12:45:06;;;;;;;;;;;9.20;77.90;;;;;;4317835;33;39954;-81
2021/01/20 12:47:32;;;;;;;;;;;9.10;78.10;;;;;;4318153;33;42024;-82
2021/01/20 12:49:59;;;;;;;;;;;9.10;77.80;;;;;;4304813;33;45851;-82
2021/01/20 12:52:28;;;;;;;;;;;9.10;78.20;;;;;;4304655;33;37980;-82
2021/01/20 12:54:58;;;;;;;;;;;9.10;77.80;;;;;;4304433;33;40867;-82
2021/01/20 12:57:27;;;;;;;;;;;9.20;78.40;;;;;;4317854;33;43933;-81
2021/01/20 12:59:54;;;;;;;;;;;9.20;78.20;;;;;;4317821;33;34566;-82
2021/01/20 13:02:25;;;;;;;;;;;9.20;77.80;;;;;;4318869;33;20036;-82
2021/01/20 13:04:59;;;;;;;;;;;9.20;78.00;;;;;;4305492;33;41406;-81
2021/01/20 13:07:28;;;;;;;;;;;9.20;78.50;;;;;;4318041;33;31773;-82
2021/01/20 13:10:00;;;;;;;;;;;9.30;78.70;;;;;;4318507;33;25289;-81
2021/01/20 13:12:27;;;;;;;;;;;9.30;78.50;;;;;;4304708;33;40591;-81
2021/01/20 13:14:53;;;;;;;;;;;9.30;78.30;;;;;;4292548;33;43755;-81
2021/01/20 13:17:20;;;;;;;;;;;9.30;78.40;;;;;;4318661;33;20002;-82
2021/01/20 13:19:50;;;;;;;;;;;9.30;78.70;;;;;;4317474;33;35281;-81
2021/01/20 13:22:28;;;;;;;;;;;9.30;78.90;;;;;;4317731;33;36017;-81
2021/01/20 13:24:55;;;;;;;;;;;9.30;78.70;;;;;;4292558;33;35745;-81
2021/01/20 13:27:24;;;;;;;;;;;9.40;78.50;;;;;;4318066;33;27548;-82
2021/01/20 13:29:54;;;;;;;;;;;9.40;78.40;;;;;;4292944;33;24723;-81
2021/01/20 13:32:23;;;;;;;;;;;9.40;78.70;;;;;;4304910;33;32614;-81
2021/01/20 13:34:49;;;;;;;;;;;9.40;78.70;;;;;;4304130;33;33161;-82
2021/01/20 13:37:20;;;;;;;;;;;9.50;78.00;;;;;;4331745;33;33633;-81
2021/01/20 13:39:47;;;;;;;;;;;9.50;78.00;;;;;;4318656;33;39808;-81
2021/01/20 13:42:14;;;;;;;;;;;9.50;78.00;;;;;;4332316;33;35760;-82
2021/01/20 13:44:41;;;;;;;;;;;9.60;77.80;;;;;;4318910;33;23853;-82
2021/01/20 13:47:08;;;;;;;;;;;9.60;77.30;;;;;;4319336;33;20033;-82
2021/01/20 13:49:43;;;;;;;;;;;9.70;77.20;;;;;;4330939;33;41214;-82
2021/01/20 13:52:15;;;;;;;;;;;9.70;76.30;;;;;;4318908;33;42088;-82
2021/01/20 13:54:42;;;;;;;;;;;9.70;76.80;;;;;;4333182;33;20402;-82
2021/01/20 13:57:09;;;;;;;;;;;9.80;76.80;;;;;;4332323;33;22944;-81
2021/01/20 13:59:36;;;;;;;;;;;9.80;75.60;;;;;;4331837;33;43254;-82
2021/01/20 14:02:08;;;;;;;;;;;9.80;76.10;;;;;;4331370;33;33645;-82
2021/01/20 14:04:35;;;;;;;;;;;9.80;75.60;;;;;;4318295;33;37788;-81
2021/01/20 14:07:02;;;;;;;;;;;9.90;75.20;;;;;;4319338;33;20023;-81
2021/01/20 14:09:29;;;;;;;;;;;9.90;75.10;;;;;;4331691;33;39619;-82
2021/01/20 14:11:55;;;;;;;;;;;9.90;75.30;;;;;;4331166;33;41612;-79
2021/01/20 14:14:22;;;;;;;;;;;9.90;74.80;;;;;;4331167;33;40561;-81
2021/01/20 14:16:49;;;;;;;;;;;10.00;75.10;;;;;;4331494;33;39318;-82
2021/01/20 14:19:19;;;;;;;;;;;10.00;74.50;;;;;;4319960;33;20085;-81
2021/01/20 14:21:45;;;;;;;;;;;10.10;74.40;;;;;;4331450;33;43978;-81
2021/01/20 14:24:12;;;;;;;;;;;10.20;74.50;;;;;;4306683;33;23900;-82
2021/01/20 14:26:38;;;;;;;;;;;10.20;74.20;;;;;;4331451;33;29978;-82
2021/01/20 14:29:05;;;;;;;;;;;10.20;74.00;;;;;;4318142;33;35807;-81
2021/01/20 14:31:34;;;;;;;;;;;10.20;74.50;;;;;;4330695;33;20915;-82
2021/01/20 14:34:01;;;;;;;;;;;10.30;74.70;;;;;;4331334;33;33108;-82
2021/01/20 14:36:29;;;;;;;;;;;10.20;73.90;;;;;;4331401;33;37439;-81
2021/01/20 14:38:56;;;;;;;;;;;10.30;74.30;;;;;;4317976;33;38406;-82
2021/01/20 14:41:22;;;;;;;;;;;10.30;74.30;;;;;;4318198;33;45223;-82